sensor_id;sensor_type;location;lat;lon;timestamp;pressure;altitude;pressure_sealevel;temperature;humidity
38780;BME280;29273;49.962;9.768;2023-05-12T00:00:48;99593.69;;;15.87;60.70
38780;BME280;29273;49.962;9.768;2023-05-12T00:03:13;99587.56;;;15.86;60.77
38780;BME280;29273;49.962;9.768;2023-05-12T00:05:39;99590.22;;;15.86;61.02
38780;BME280;29273;49.962;9.768;2023-05-12T00:08:04;99592.09;;;15.86;60.68
38780;BME280;29273;49.962;9.768;2023-05-12T00:10:30;99592.09;;;15.86;60.79
38780;BME280;29273;49.962;9.768;2023-05-12T00:12:56;99587.00;;;15.84;60.59
38780;BME280;29273;49.962;9.768;2023-05-12T00:15:21;99585.97;;;15.85;60.88
38780;BME280;29273;49.962;9.768;2023-05-12T00:17:47;99588.63;;;15.85;60.91
38780;BME280;29273;49.962;9.768;2023-05-12T00:20:12;99588.63;;;15.85;60.85
38780;BME280;29273;49.962;9.768;2023-05-12T00:22:39;99583.03;;;15.87;60.92
38780;BME280;29273;49.962;9.768;2023-05-12T00:25:05;99586.53;;;15.87;61.17
38780;BME280;29273;49.962;9.768;2023-05-12T00:27:31;99591.63;;;15.89;60.95
38780;BME280;29273;49.962;9.768;2023-05-12T00:29:57;99585.44;;;15.88;61.27
38780;BME280;29273;49.962;9.768;2023-05-12T00:32:23;99588.94;;;15.89;61.17
38780;BME280;29273;49.962;9.768;2023-05-12T00:34:49;99586.28;;;15.89;61.14
38780;BME280;29273;49.962;9.768;2023-05-12T00:37:15;99590.56;;;15.90;61.37
38780;BME280;29273;49.962;9.768;2023-05-12T00:39:41;99586.28;;;15.89;61.55
38780;BME280;29273;49.962;9.768;2023-05-12T00:42:06;99585.44;;;15.88;61.07
38780;BME280;29273;49.962;9.768;2023-05-12T00:44:32;99587.31;;;15.88;61.10
38780;BME280;29273;49.962;9.768;2023-05-12T00:46:58;99589.50;;;15.91;61.30
38780;BME280;29273;49.962;9.768;2023-05-12T00:49:24;99586.84;;;15.91;60.68
38780;BME280;29273;49.962;9.768;2023-05-12T00:51:53;99578.34;;;15.94;60.84
38780;BME280;29273;49.962;9.768;2023-05-12T00:54:19;99581.50;;;15.91;60.77
38780;BME280;29273;49.962;9.768;2023-05-12T00:56:44;99581.75;;;15.89;61.09
38780;BME280;29273;49.962;9.768;2023-05-12T00:59:10;99580.13;;;15.88;61.24
38780;BME280;29273;49.962;9.768;2023-05-12T01:01:39;99580.13;;;15.88;61.32
38780;BME280;29273;49.962;9.768;2023-05-12T01:04:05;99581.75;;;15.89;61.24
38780;BME280;29273;49.962;9.768;2023-05-12T01:06:55;99579.88;;;15.90;59.95
38780;BME280;29273;49.962;9.768;2023-05-12T01:09:22;99582.78;;;15.88;61.24
38780;BME280;29273;49.962;9.768;2023-05-12T01:11:48;99573.97;;;15.88;60.71
38780;BME280;29273;49.962;9.768;2023-05-12T01:14:14;99574.78;;;15.88;60.91
38780;BME280;29273;49.962;9.768;2023-05-12T01:16:44;99577.78;;;15.92;60.47
38780;BME280;29273;49.962;9.768;2023-05-12T01:19:26;99581.13;;;15.70;60.10
38780;BME280;29273;49.962;9.768;2023-05-12T01:21:57;99578.75;;;15.86;60.49
38780;BME280;29273;49.962;9.768;2023-05-12T01:24:26;99578.50;;;15.87;60.58
38780;BME280;29273;49.962;9.768;2023-05-12T01:26:53;99573.31;;;15.81;61.15
38780;BME280;29273;49.962;9.768;2023-05-12T01:29:20;99572.03;;;15.83;61.03
38780;BME280;29273;49.962;9.768;2023-05-12T01:31:47;99574.69;;;15.83;60.82
38780;BME280;29273;49.962;9.768;2023-05-12T01:34:15;99577.34;;;15.83;60.72
38780;BME280;29273;49.962;9.768;2023-05-12T01:36:43;99574.38;;;15.80;60.86
38780;BME280;29273;49.962;9.768;2023-05-12T01:39:09;99585.03;;;15.80;61.14
38780;BME280;29273;49.962;9.768;2023-05-12T01:41:34;99575.44;;;15.79;61.06
38780;BME280;29273;49.962;9.768;2023-05-12T01:44:00;99577.28;;;15.78;61.10
38780;BME280;29273;49.962;9.768;2023-05-12T01:46:26;99579.72;;;15.80;61.27
38780;BME280;29273;49.962;9.768;2023-05-12T01:48:54;99579.94;;;15.78;61.42
38780;BME280;29273;49.962;9.768;2023-05-12T01:51:19;99587.16;;;15.78;61.48
38780;BME280;29273;49.962;9.768;2023-05-12T01:53:45;99593.28;;;15.78;60.84
38780;BME280;29273;49.962;9.768;2023-05-12T01:56:11;99591.47;;;15.79;61.26
38780;BME280;29273;49.962;9.768;2023-05-12T01:58:36;99588.19;;;15.77;61.06
38780;BME280;29273;49.962;9.768;2023-05-12T02:01:02;99597.03;;;15.77;61.30
38780;BME280;29273;49.962;9.768;2023-05-12T02:03:28;99594.38;;;15.77;60.96
38780;BME280;29273;49.962;9.768;2023-05-12T02:05:55;99598.88;;;15.77;61.01
38780;BME280;29273;49.962;9.768;2023-05-12T02:08:21;99600.75;;;15.76;61.13
38780;BME280;29273;49.962;9.768;2023-05-12T02:10:47;99595.63;;;15.75;61.14
38780;BME280;29273;49.962;9.768;2023-05-12T02:13:12;99587.59;;;15.75;60.88
38780;BME280;29273;49.962;9.768;2023-05-12T02:15:38;99594.81;;;15.74;60.84
38780;BME280;29273;49.962;9.768;2023-05-12T02:18:04;99600.16;;;15.74;61.11
38780;BME280;29273;49.962;9.768;2023-05-12T02:20:29;99598.28;;;15.75;61.26
38780;BME280;29273;49.962;9.768;2023-05-12T02:22:55;99596.88;;;15.72;61.02
38780;BME280;29273;49.962;9.768;2023-05-12T02:25:20;99596.88;;;15.72;60.90
38780;BME280;29273;49.962;9.768;2023-05-12T02:27:47;99595.84;;;15.73;61.40
38780;BME280;29273;49.962;9.768;2023-05-12T02:30:13;99593.41;;;15.71;61.37
38780;BME280;29273;49.962;9.768;2023-05-12T02:32:39;99593.41;;;15.71;61.21
38780;BME280;29273;49.962;9.768;2023-05-12T02:35:06;99592.63;;;15.71;61.14
38780;BME280;29273;49.962;9.768;2023-05-12T02:37:32;99591.81;;;15.70;61.31
38780;BME280;29273;49.962;9.768;2023-05-12T02:39:58;99591.00;;;15.70;61.17
38780;BME280;29273;49.962;9.768;2023-05-12T02:42:23;99590.19;;;15.69;60.86
38780;BME280;29273;49.962;9.768;2023-05-12T02:44:53;99591.22;;;15.68;61.29
38780;BME280;29273;49.962;9.768;2023-05-12T02:47:18;99593.91;;;15.68;61.16
38780;BME280;29273;49.962;9.768;2023-05-12T02:49:44;99594.97;;;15.67;61.43
38780;BME280;29273;49.962;9.768;2023-05-12T02:52:09;99596.81;;;15.67;60.99
38780;BME280;29273;49.962;9.768;2023-05-12T02:54:35;99594.38;;;15.65;60.88
38780;BME280;29273;49.962;9.768;2023-05-12T02:57:04;99594.72;;;15.69;60.57
38780;BME280;29273;49.962;9.768;2023-05-12T02:59:29;99598.91;;;15.65;61.35
38780;BME280;29273;49.962;9.768;2023-05-12T03:01:54;99597.53;;;15.62;60.93
38780;BME280;29273;49.962;9.768;2023-05-12T03:04:20;99599.16;;;15.63;60.69
38780;BME280;29273;49.962;9.768;2023-05-12T03:06:46;99589.78;;;15.61;61.09
38780;BME280;29273;49.962;9.768;2023-05-12T03:09:12;99594.28;;;15.60;60.58
38780;BME280;29273;49.962;9.768;2023-05-12T03:11:37;99590.00;;;15.59;60.51
38780;BME280;29273;49.962;9.768;2023-05-12T03:14:03;99592.91;;;15.58;60.89
38780;BME280;29273;49.962;9.768;2023-05-12T03:16:28;99593.72;;;15.58;60.57
38780;BME280;29273;49.962;9.768;2023-05-12T03:18:54;99595.03;;;15.56;60.75
38780;BME280;29273;49.962;9.768;2023-05-12T03:21:19;99592.59;;;15.54;61.10
38780;BME280;29273;49.962;9.768;2023-05-12T03:23:45;99588.28;;;15.53;61.22
38780;BME280;29273;49.962;9.768;2023-05-12T03:26:10;99594.66;;;15.52;60.80
38780;BME280;29273;49.962;9.768;2023-05-12T03:28:35;99586.66;;;15.52;61.48
38780;BME280;29273;49.962;9.768;2023-05-12T03:31:01;99592.28;;;15.50;61.01
38780;BME280;29273;49.962;9.768;2023-05-12T03:33:26;99600.28;;;15.50;61.06
38780;BME280;29273;49.962;9.768;2023-05-12T03:35:52;99594.09;;;15.50;61.04
38780;BME280;29273;49.962;9.768;2023-05-12T03:38:18;99594.09;;;15.50;60.79
38780;BME280;29273;49.962;9.768;2023-05-12T03:40:45;99591.44;;;15.50;61.01
38780;BME280;29273;49.962;9.768;2023-05-12T03:43:16;99603.41;;;15.47;61.00
38780;BME280;29273;49.962;9.768;2023-05-12T03:45:42;99595.41;;;15.47;61.53
38780;BME280;29273;49.962;9.768;2023-05-12T03:48:08;99590.06;;;15.47;60.98
38780;BME280;29273;49.962;9.768;2023-05-12T03:50:33;99594.81;;;15.45;61.05
38780;BME280;29273;49.962;9.768;2023-05-12T03:52:59;99592.75;;;15.47;60.92
38780;BME280;29273;49.962;9.768;2023-05-12T03:55:26;99599.13;;;15.46;61.00
38780;BME280;29273;49.962;9.768;2023-05-12T03:57:51;99596.91;;;15.43;61.14
38780;BME280;29273;49.962;9.768;2023-05-12T04:00:17;99592.16;;;15.45;61.46
38780;BME280;29273;49.962;9.768;2023-05-12T04:02:43;99600.97;;;15.46;61.14
38780;BME280;29273;49.962;9.768;2023-05-12T04:05:09;99591.34;;;15.45;61.54
38780;BME280;29273;49.962;9.768;2023-05-12T04:07:34;99602.03;;;15.45;61.32
38780;BME280;29273;49.962;9.768;2023-05-12T04:10:00;99597.47;;;15.45;61.45
38780;BME280;29273;49.962;9.768;2023-05-12T04:12:26;99597.75;;;15.44;61.35
38780;BME280;29273;49.962;9.768;2023-05-12T04:14:51;99603.88;;;15.44;61.22
38780;BME280;29273;49.962;9.768;2023-05-12T04:17:17;99607.34;;;15.45;61.47
38780;BME280;29273;49.962;9.768;2023-05-12T04:19:44;99610.81;;;15.45;61.63
38780;BME280;29273;49.962;9.768;2023-05-12T04:22:10;99609.00;;;15.46;61.41
38780;BME280;29273;49.962;9.768;2023-05-12T04:24:36;99610.81;;;15.45;61.56
38780;BME280;29273;49.962;9.768;2023-05-12T04:27:03;99607.91;;;15.47;61.59
38780;BME280;29273;49.962;9.768;2023-05-12T04:29:28;99610.81;;;15.45;61.66
38780;BME280;29273;49.962;9.768;2023-05-12T04:31:54;99610.81;;;15.45;61.29
38780;BME280;29273;49.962;9.768;2023-05-12T04:34:20;99610.81;;;15.45;61.56
38780;BME280;29273;49.962;9.768;2023-05-12T04:36:45;99617.78;;;15.46;61.34
38780;BME280;29273;49.962;9.768;2023-05-12T04:39:11;99616.16;;;15.45;61.27
38780;BME280;29273;49.962;9.768;2023-05-12T04:41:38;99615.94;;;15.47;61.17
38780;BME280;29273;49.962;9.768;2023-05-12T04:44:06;99613.25;;;15.47;61.37
38780;BME280;29273;49.962;9.768;2023-05-12T04:46:32;99613.50;;;15.45;61.47
38780;BME280;29273;49.962;9.768;2023-05-12T04:48:58;99622.09;;;15.47;61.25
38780;BME280;29273;49.962;9.768;2023-05-12T04:51:24;99616.75;;;15.47;61.79
38780;BME280;29273;49.962;9.768;2023-05-12T04:53:49;99613.84;;;15.49;61.75
38780;BME280;29273;49.962;9.768;2023-05-12T04:56:15;99625.91;;;15.51;61.93
38780;BME280;29273;49.962;9.768;2023-05-12T04:58:41;99622.75;;;15.54;62.23
38780;BME280;29273;49.962;9.768;2023-05-12T05:01:06;99626.22;;;15.55;62.19
38780;BME280;29273;49.962;9.768;2023-05-12T05:03:32;99624.16;;;15.57;61.84
38780;BME280;29273;49.962;9.768;2023-05-12T05:05:58;99631.09;;;15.58;61.66
38780;BME280;29273;49.962;9.768;2023-05-12T05:08:23;99624.47;;;15.61;62.23
38780;BME280;29273;49.962;9.768;2023-05-12T05:10:49;99627.72;;;15.63;62.01
38780;BME280;29273;49.962;9.768;2023-05-12T05:13:15;99628.28;;;15.65;62.07
38780;BME280;29273;49.962;9.768;2023-05-12T05:15:48;99629.75;;;15.72;61.15
38780;BME280;29273;49.962;9.768;2023-05-12T05:18:14;99635.81;;;15.68;61.89
38780;BME280;29273;49.962;9.768;2023-05-12T05:20:39;99634.78;;;15.69;61.69
38780;BME280;29273;49.962;9.768;2023-05-12T05:23:05;99641.72;;;15.70;61.99
38780;BME280;29273;49.962;9.768;2023-05-12T05:25:31;99629.19;;;15.70;61.79
38780;BME280;29273;49.962;9.768;2023-05-12T05:27:57;99633.47;;;15.71;61.75
38780;BME280;29273;49.962;9.768;2023-05-12T05:30:23;99636.94;;;15.72;61.87
38780;BME280;29273;49.962;9.768;2023-05-12T05:32:48;99636.94;;;15.72;61.84
38780;BME280;29273;49.962;9.768;2023-05-12T05:35:14;99637.53;;;15.74;61.89
38780;BME280;29273;49.962;9.768;2023-05-12T05:37:44;99635.66;;;15.75;61.81
38780;BME280;29273;49.962;9.768;2023-05-12T05:40:10;99636.47;;;15.75;61.77
38780;BME280;29273;49.962;9.768;2023-05-12T05:42:36;99634.66;;;15.76;61.45
38780;BME280;29273;49.962;9.768;2023-05-12T05:45:01;99623.97;;;15.76;61.76
38780;BME280;29273;49.962;9.768;2023-05-12T05:47:27;99633.00;;;15.75;61.32
38780;BME280;29273;49.962;9.768;2023-05-12T05:49:53;99641.00;;;15.75;61.85
38780;BME280;29273;49.962;9.768;2023-05-12T05:52:20;99640.78;;;15.76;62.02
38780;BME280;29273;49.962;9.768;2023-05-12T05:54:46;99648.22;;;15.74;61.52
38780;BME280;29273;49.962;9.768;2023-05-12T05:57:14;99647.38;;;15.73;61.86
38780;BME280;29273;49.962;9.768;2023-05-12T05:59:40;99656.22;;;15.74;61.84
38780;BME280;29273;49.962;9.768;2023-05-12T06:02:05;99651.91;;;15.73;62.23
38780;BME280;29273;49.962;9.768;2023-05-12T06:04:31;99651.13;;;15.72;62.03
38780;BME280;29273;49.962;9.768;2023-05-12T06:06:56;99656.44;;;15.72;62.03
38780;BME280;29273;49.962;9.768;2023-05-12T06:09:22;99656.69;;;15.71;61.80
38780;BME280;29273;49.962;9.768;2023-05-12T06:11:48;99658.06;;;15.73;62.11
38780;BME280;29273;49.962;9.768;2023-05-12T06:14:14;99652.94;;;15.72;62.25
38780;BME280;29273;49.962;9.768;2023-05-12T06:16:41;99652.94;;;15.72;62.00
38780;BME280;29273;49.962;9.768;2023-05-12T06:19:06;99652.94;;;15.72;62.05
38780;BME280;29273;49.962;9.768;2023-05-12T06:21:32;99659.13;;;15.72;62.22
38780;BME280;29273;49.962;9.768;2023-05-12T06:23:57;99660.72;;;15.73;62.41
38780;BME280;29273;49.962;9.768;2023-05-12T06:26:23;99658.88;;;15.74;61.86
38780;BME280;29273;49.962;9.768;2023-05-12T06:28:48;99664.03;;;15.76;62.11
38780;BME280;29273;49.962;9.768;2023-05-12T06:31:14;99666.47;;;15.77;62.04
38780;BME280;29273;49.962;9.768;2023-05-12T06:33:39;99673.41;;;15.78;62.56
38780;BME280;29273;49.962;9.768;2023-05-12T06:36:05;99672.13;;;15.81;62.77
38780;BME280;29273;49.962;9.768;2023-05-12T06:38:31;99661.19;;;15.82;62.74
38780;BME280;29273;49.962;9.768;2023-05-12T06:40:57;99668.75;;;15.85;62.54
38780;BME280;29273;49.962;9.768;2023-05-12T06:43:22;99673.56;;;15.88;62.58
38780;BME280;29273;49.962;9.768;2023-05-12T06:45:53;99671.81;;;15.94;61.96
38780;BME280;29273;49.962;9.768;2023-05-12T06:48:18;99672.94;;;15.98;62.00
38780;BME280;29273;49.962;9.768;2023-05-12T06:50:44;99676.53;;;16.04;62.10
38780;BME280;29273;49.962;9.768;2023-05-12T06:53:09;99673.38;;;16.07;61.13
38780;BME280;29273;49.962;9.768;2023-05-12T06:55:35;99671.84;;;16.11;62.17
38780;BME280;29273;49.962;9.768;2023-05-12T06:58:01;99670.28;;;16.15;62.05
38780;BME280;29273;49.962;9.768;2023-05-12T07:00:27;99667.97;;;16.19;61.74
38780;BME280;29273;49.962;9.768;2023-05-12T07:02:52;99672.81;;;16.22;61.47
38780;BME280;29273;49.962;9.768;2023-05-12T07:05:18;99669.66;;;16.25;61.53
38780;BME280;29273;49.962;9.768;2023-05-12T07:07:44;99667.31;;;16.28;61.87
38780;BME280;29273;49.962;9.768;2023-05-12T07:10:09;99670.34;;;16.32;61.65
38780;BME280;29273;49.962;9.768;2023-05-12T07:12:35;99666.09;;;16.36;61.74
38780;BME280;29273;49.962;9.768;2023-05-12T07:15:02;99668.28;;;16.39;61.75
38780;BME280;29273;49.962;9.768;2023-05-12T07:17:28;99663.03;;;16.44;61.29
38780;BME280;29273;49.962;9.768;2023-05-12T07:19:54;99659.06;;;16.47;61.35
38780;BME280;29273;49.962;9.768;2023-05-12T07:22:19;99655.88;;;16.50;61.79
38780;BME280;29273;49.962;9.768;2023-05-12T07:24:45;99651.69;;;16.54;61.40
38780;BME280;29273;49.962;9.768;2023-05-12T07:27:10;99661.06;;;16.57;60.84
38780;BME280;29273;49.962;9.768;2023-05-12T07:29:36;99661.66;;;16.59;61.27
38780;BME280;29273;49.962;9.768;2023-05-12T07:32:03;99661.97;;;16.62;61.21
38780;BME280;29273;49.962;9.768;2023-05-12T07:34:31;99665.28;;;16.70;61.72
38780;BME280;29273;49.962;9.768;2023-05-12T07:36:57;99667.13;;;16.69;61.49
38780;BME280;29273;49.962;9.768;2023-05-12T07:39:24;99663.75;;;16.74;61.37
38780;BME280;29273;49.962;9.768;2023-05-12T07:41:50;99666.47;;;16.79;61.70
38780;BME280;29273;49.962;9.768;2023-05-12T07:44:17;99666.56;;;16.84;61.83
38780;BME280;29273;49.962;9.768;2023-05-12T07:46:43;99661.84;;;16.91;60.97
38780;BME280;29273;49.962;9.768;2023-05-12T07:49:08;99664.34;;;16.98;61.05
38780;BME280;29273;49.962;9.768;2023-05-12T07:51:33;99672.19;;;17.05;61.50
38780;BME280;29273;49.962;9.768;2023-05-12T07:53:59;99667.47;;;17.12;61.94
38780;BME280;29273;49.962;9.768;2023-05-12T07:56:25;99675.59;;;17.17;61.38
38780;BME280;29273;49.962;9.768;2023-05-12T07:58:50;99670.84;;;17.24;61.18
38780;BME280;29273;49.962;9.768;2023-05-12T08:01:16;99676.00;;;17.31;62.23
38780;BME280;29273;49.962;9.768;2023-05-12T08:03:41;99682.22;;;17.36;61.31
38780;BME280;29273;49.962;9.768;2023-05-12T08:06:07;99689.28;;;17.43;61.23
38780;BME280;29273;49.962;9.768;2023-05-12T08:08:33;99685.59;;;17.49;60.79
38780;BME280;29273;49.962;9.768;2023-05-12T08:10:59;99677.03;;;17.52;60.11
38780;BME280;29273;49.962;9.768;2023-05-12T08:13:24;99684.56;;;17.55;60.25
38780;BME280;29273;49.962;9.768;2023-05-12T08:15:50;99678.47;;;17.60;59.99
38780;BME280;29273;49.962;9.768;2023-05-12T08:18:16;99679.63;;;17.64;60.29
38780;BME280;29273;49.962;9.768;2023-05-12T08:20:42;99679.91;;;17.67;59.51
38780;BME280;29273;49.962;9.768;2023-05-12T08:23:08;99675.09;;;17.69;58.98
38780;BME280;29273;49.962;9.768;2023-05-12T08:25:34;99682.66;;;17.72;58.83
38780;BME280;29273;49.962;9.768;2023-05-12T08:28:02;99680.81;;;17.78;59.18
38780;BME280;29273;49.962;9.768;2023-05-12T08:30:27;99689.69;;;17.79;59.00
38780;BME280;29273;49.962;9.768;2023-05-12T08:32:54;99689.16;;;17.82;59.55
38780;BME280;29273;49.962;9.768;2023-05-12T08:35:19;99683.53;;;17.83;59.56
38780;BME280;29273;49.962;9.768;2023-05-12T08:37:45;99690.06;;;17.87;59.62
38780;BME280;29273;49.962;9.768;2023-05-12T08:40:20;99691.19;;;17.97;59.91
38780;BME280;29273;49.962;9.768;2023-05-12T08:43:06;99694.47;;;17.99;60.25
38780;BME280;29273;49.962;9.768;2023-05-12T08:45:36;99699.28;;;18.02;59.40
38780;BME280;29273;49.962;9.768;2023-05-12T08:48:03;99695.56;;;18.03;59.09
38780;BME280;29273;49.962;9.768;2023-05-12T08:50:29;99693.69;;;18.03;59.09
38780;BME280;29273;49.962;9.768;2023-05-12T08:52:57;99696.97;;;18.10;58.82
38780;BME280;29273;49.962;9.768;2023-05-12T08:55:23;99695.66;;;18.13;58.58
38780;BME280;29273;49.962;9.768;2023-05-12T08:57:50;99699.44;;;18.17;58.68
38780;BME280;29273;49.962;9.768;2023-05-12T09:00:17;99691.19;;;18.24;58.38
38780;BME280;29273;49.962;9.768;2023-05-12T09:02:44;99714.53;;;18.28;58.48
38780;BME280;29273;49.962;9.768;2023-05-12T09:05:11;99704.41;;;18.30;58.07
38780;BME280;29273;49.962;9.768;2023-05-12T09:07:41;99704.47;;;18.41;58.81
38780;BME280;29273;49.962;9.768;2023-05-12T09:10:18;99710.38;;;18.43;58.44
38780;BME280;29273;49.962;9.768;2023-05-12T09:12:46;99701.25;;;18.39;58.05
38780;BME280;29273;49.962;9.768;2023-05-12T09:15:17;99702.91;;;18.50;58.45
38780;BME280;29273;49.962;9.768;2023-05-12T09:17:44;99706.13;;;18.47;58.46
38780;BME280;29273;49.962;9.768;2023-05-12T09:20:11;99711.28;;;18.54;58.24
38780;BME280;29273;49.962;9.768;2023-05-12T09:22:37;99711.84;;;18.56;58.99
38780;BME280;29273;49.962;9.768;2023-05-12T09:25:16;99702.22;;;18.65;58.70
38780;BME280;29273;49.962;9.768;2023-05-12T09:27:45;99705.47;;;18.67;58.09
38780;BME280;29273;49.962;9.768;2023-05-12T09:30:11;99711.91;;;18.66;57.07
38780;BME280;29273;49.962;9.768;2023-05-12T09:32:37;99703.84;;;18.66;56.82
38780;BME280;29273;49.962;9.768;2023-05-12T09:35:08;99711.44;;;18.74;58.46
38780;BME280;29273;49.962;9.768;2023-05-12T09:37:38;99707.38;;;18.72;57.79
38780;BME280;29273;49.962;9.768;2023-05-12T09:40:06;99717.34;;;18.76;57.42
38780;BME280;29273;49.962;9.768;2023-05-12T09:42:33;99707.69;;;18.75;57.38
38780;BME280;29273;49.962;9.768;2023-05-12T09:45:03;99704.53;;;18.83;58.06
38780;BME280;29273;49.962;9.768;2023-05-12T09:47:36;99704.84;;;18.87;57.87
38780;BME280;29273;49.962;9.768;2023-05-12T09:50:03;99714.19;;;18.84;57.74
38780;BME280;29273;49.962;9.768;2023-05-12T09:52:29;99707.28;;;18.89;56.76
38780;BME280;29273;49.962;9.768;2023-05-12T09:55:10;99712.16;;;18.97;57.85
38780;BME280;29273;49.962;9.768;2023-05-12T09:57:41;99705.97;;;19.01;57.95
38780;BME280;29273;49.962;9.768;2023-05-12T10:00:12;99707.06;;;19.00;57.05
38780;BME280;29273;49.962;9.768;2023-05-12T10:02:40;99708.66;;;19.01;56.22
38780;BME280;29273;49.962;9.768;2023-05-12T10:05:13;99701.22;;;19.09;57.31
38780;BME280;29273;49.962;9.768;2023-05-12T10:07:43;99697.69;;;19.08;56.81
38780;BME280;29273;49.962;9.768;2023-05-12T10:10:13;99706.31;;;19.10;56.60
38780;BME280;29273;49.962;9.768;2023-05-12T10:12:39;99717.84;;;19.11;56.27
38780;BME280;29273;49.962;9.768;2023-05-12T10:15:08;99719.50;;;19.17;56.88
38780;BME280;29273;49.962;9.768;2023-05-12T10:17:35;99716.81;;;19.17;56.50
38780;BME280;29273;49.962;9.768;2023-05-12T10:20:01;99707.13;;;19.16;55.40
38780;BME280;29273;49.962;9.768;2023-05-12T10:22:27;99705.78;;;19.18;56.68
38780;BME280;29273;49.962;9.768;2023-05-12T10:24:55;99706.38;;;19.20;56.66
38780;BME280;29273;49.962;9.768;2023-05-12T10:27:22;99705.03;;;19.23;56.58
38780;BME280;29273;49.962;9.768;2023-05-12T10:29:48;99706.38;;;19.26;56.21
38780;BME280;29273;49.962;9.768;2023-05-12T10:32:14;99709.34;;;19.29;55.70
38780;BME280;29273;49.962;9.768;2023-05-12T10:34:40;99711.25;;;19.34;56.06
38780;BME280;29273;49.962;9.768;2023-05-12T10:37:09;99712.91;;;19.45;56.85
38780;BME280;29273;49.962;9.768;2023-05-12T10:39:48;99709.16;;;19.51;56.95
38780;BME280;29273;49.962;9.768;2023-05-12T10:42:21;99720.75;;;19.57;56.56
38780;BME280;29273;49.962;9.768;2023-05-12T10:44:54;99708.41;;;19.61;55.53
38780;BME280;29273;49.962;9.768;2023-05-12T10:47:24;99710.28;;;19.66;55.25
38780;BME280;29273;49.962;9.768;2023-05-12T10:49:56;99702.50;;;19.69;56.26
38780;BME280;29273;49.962;9.768;2023-05-12T10:52:22;99711.88;;;19.67;54.28
38780;BME280;29273;49.962;9.768;2023-05-12T10:54:48;99704.41;;;19.69;54.14
38780;BME280;29273;49.962;9.768;2023-05-12T10:57:17;99698.50;;;19.72;52.66
38780;BME280;29273;49.962;9.768;2023-05-12T10:59:51;99703.09;;;19.82;54.21
38780;BME280;29273;49.962;9.768;2023-05-12T11:02:28;99706.34;;;19.84;54.36
38780;BME280;29273;49.962;9.768;2023-05-12T11:07:24;99707.94;;;19.90;53.07
38780;BME280;29273;49.962;9.768;2023-05-12T11:09:54;99705.00;;;19.91;52.61
38780;BME280;29273;49.962;9.768;2023-05-12T11:12:21;99705.28;;;19.95;51.38
38780;BME280;29273;49.962;9.768;2023-05-12T11:14:46;99703.94;;;20.03;52.32
38780;BME280;29273;49.962;9.768;2023-05-12T11:17:13;99697.50;;;20.04;51.17
38780;BME280;29273;49.962;9.768;2023-05-12T11:19:44;99700.22;;;20.14;52.50
38780;BME280;29273;49.962;9.768;2023-05-12T11:22:10;99708.81;;;20.11;50.76
38780;BME280;29273;49.962;9.768;2023-05-12T11:24:39;99709.34;;;20.18;50.62
38780;BME280;29273;49.962;9.768;2023-05-12T11:27:05;99714.72;;;20.18;50.16
38780;BME280;29273;49.962;9.768;2023-05-12T11:29:31;99714.44;;;20.20;47.97
38780;BME280;29273;49.962;9.768;2023-05-12T11:31:57;99713.66;;;20.24;48.81
38780;BME280;29273;49.962;9.768;2023-05-12T11:34:25;99710.97;;;20.29;49.13
38780;BME280;29273;49.962;9.768;2023-05-12T11:36:55;99712.31;;;20.32;50.54
38780;BME280;29273;49.962;9.768;2023-05-12T11:39:21;99703.16;;;20.33;50.87
38780;BME280;29273;49.962;9.768;2023-05-12T11:41:48;99708.28;;;20.40;50.50
38780;BME280;29273;49.962;9.768;2023-05-12T11:44:22;99710.16;;;20.44;49.94
38780;BME280;29273;49.962;9.768;2023-05-12T11:49:50;99711.50;;;20.62;52.74
38780;BME280;29273;49.962;9.768;2023-05-12T11:52:16;99710.72;;;20.62;50.42
38780;BME280;29273;49.962;9.768;2023-05-12T11:54:55;99709.91;;;20.77;51.81
38780;BME280;29273;49.962;9.768;2023-05-12T11:57:28;99713.91;;;20.84;52.27
38780;BME280;29273;49.962;9.768;2023-05-12T11:59:58;99713.38;;;20.82;49.20
38780;BME280;29273;49.962;9.768;2023-05-12T12:02:24;99711.47;;;20.88;49.16
38780;BME280;29273;49.962;9.768;2023-05-12T12:04:50;99711.47;;;20.93;48.98
38780;BME280;29273;49.962;9.768;2023-05-12T12:07:15;99714.97;;;20.99;48.88
38780;BME280;29273;49.962;9.768;2023-05-12T12:09:41;99706.34;;;21.02;46.73
38780;BME280;29273;49.962;9.768;2023-05-12T12:12:09;99710.34;;;21.10;47.44
38780;BME280;29273;49.962;9.768;2023-05-12T12:14:36;99709.84;;;21.07;46.08
38780;BME280;29273;49.962;9.768;2023-05-12T12:17:03;99710.34;;;21.10;45.27
38780;BME280;29273;49.962;9.768;2023-05-12T12:19:29;99697.16;;;21.13;45.72
38780;BME280;29273;49.962;9.768;2023-05-12T12:21:56;99716.56;;;21.15;46.59
38780;BME280;29273;49.962;9.768;2023-05-12T12:24:22;99724.88;;;21.19;44.46
38780;BME280;29273;49.962;9.768;2023-05-12T12:26:48;99706.28;;;21.22;46.32
38780;BME280;29273;49.962;9.768;2023-05-12T12:29:13;99725.94;;;21.23;44.81
38780;BME280;29273;49.962;9.768;2023-05-12T12:31:39;99710.84;;;21.27;44.76
38780;BME280;29273;49.962;9.768;2023-05-12T12:34:04;99718.66;;;21.29;43.88
38780;BME280;29273;49.962;9.768;2023-05-12T12:36:30;99714.06;;;21.34;45.17
38780;BME280;29273;49.962;9.768;2023-05-12T12:38:57;99721.31;;;21.39;44.09
38780;BME280;29273;49.962;9.768;2023-05-12T12:41:23;99721.03;;;21.40;43.78
38780;BME280;29273;49.962;9.768;2023-05-12T12:43:49;99712.72;;;21.37;43.88
38780;BME280;29273;49.962;9.768;2023-05-12T12:46:14;99723.75;;;21.35;43.24
38780;BME280;29273;49.962;9.768;2023-05-12T12:48:40;99717.03;;;21.33;43.47
38780;BME280;29273;49.962;9.768;2023-05-12T12:51:05;99718.91;;;21.32;42.97
38780;BME280;29273;49.962;9.768;2023-05-12T12:53:31;99722.44;;;21.28;43.45
38780;BME280;29273;49.962;9.768;2023-05-12T12:55:57;99718.13;;;21.21;43.84
38780;BME280;29273;49.962;9.768;2023-05-12T12:58:22;99723.00;;;21.19;44.01
38780;BME280;29273;49.962;9.768;2023-05-12T13:00:48;99717.88;;;21.18;43.80
38780;BME280;29273;49.962;9.768;2023-05-12T13:03:14;99717.09;;;21.17;44.03